Desert Spring — V7XQ8 — position and weather

sailwx.info

Track history (hours):
 
Tides and Currents Weather Stations Pressure Air Temp Water Temp Dewpoint Dewpoint Depression Visibility Wind Speed Wind Dir Waves Ship Positions

Desert Spring

Last reported at 2014-Sep-21 21:33 UTC. Time now 2014-Sep-22 02:11 UTC.
Position N 56°43' E 011°47'.

Length 193 m; draft 7 m.

Type: Cargo ship. MMSI: 538004547.

Date/timePositionNaut miles runAvg speedWind from/ knotsBaromVisibWave heightAir tempDewpointWater temp
2014-Sep-21 21:33N 56°43' E 011°47'1211.6
2014-Sep-21 20:33N 56°55' E 011°45'1312.6
2014-Sep-21 19:33N 57°06' E 011°36'1313.3
2014-Sep-21 18:33N 57°19' E 011°29'1313.1
2014-Sep-21 17:33N 57°32' E 011°35'5 4.4
2014-Sep-21 16:32N 57°35' E 011°41'0 0.0
2014-Sep-21 15:32N 57°35' E 011°41'0 0.0
2014-Sep-21 14:32N 57°35' E 011°41'0 0.0
2014-Sep-21 13:32N 57°35' E 011°41'0 0.0
2014-Sep-21 12:32N 57°35' E 011°41'0 0.0
2014-Sep-21 11:32N 57°35' E 011°41'1 0.7
2014-Sep-21 10:33N 57°35' E 011°40'5 4.5
2014-Sep-21 09:33N 57°36' E 011°32'1010.1
2014-Sep-21 08:34N 57°43' E 011°19'1413.6
2014-Sep-21 07:33N 57°50' E 010°56'15912.1
2014-Sep-20 18:26N 58°00' E 005°58'67 9.6
2014-Sep-20 11:26N 58°58' E 004°51'1011.3
2014-Sep-20 10:33N 59°03' E 005°08'1010.1
2014-Sep-20 09:33N 59°08' E 005°24'1312.9
2014-Sep-20 08:33N 59°16' E 005°44'1312.5
2014-Sep-20 07:33N 59°23' E 006°04'7 7.0
2014-Sep-20 06:32N 59°29' E 006°14'  
2014-Sep-16 05:25N 59°30' E 006°15'8 8.4
2014-Sep-16 04:29N 59°24' E 006°05'9 9.1
2014-Sep-16 03:33N 59°19' E 005°51'1212.0
2014-Sep-16 02:33N 59°10' E 005°35'9 9.3
2014-Sep-16 01:33N 59°05' E 005°21'7 7.0
2014-Sep-16 00:33N 59°01' E 005°09'1212.1
2014-Sep-15 23:33N 58°53' E 004°52'1312.7
2014-Sep-15 22:33N 58°42' E 005°02'1412.5
2014-Sep-15 21:27N 58°29' E 005°12'1213.0
2014-Sep-15 20:32N 58°21' E 005°29'1313.0
2014-Sep-15 19:33N 58°15' E 005°50'1313.2
2014-Sep-15 18:33N 58°11' E 006°14'  
Track history (hours):
 
Tides and Currents Weather Stations Pressure Air Temp Water Temp Dewpoint Dewpoint Depression Visibility Wind Speed Wind Dir Waves Ship Positions

Desert Spring

Last reported at 2014-Sep-21 21:33 UTC. Time now 2014-Sep-22 02:11 UTC.
Position N 56°43' E 011°47'.

Length 193 m; draft 7 m.

Type: Cargo ship. MMSI: 538004547.

Date/timePositionNaut miles runAvg speedWind from/ knotsBaromVisibWave heightAir tempDewpointWater temp
2014-Sep-21 21:33N 56°43' E 011°47'1211.6
2014-Sep-21 20:33N 56°55' E 011°45'1312.6
2014-Sep-21 19:33N 57°06' E 011°36'1313.3
2014-Sep-21 18:33N 57°19' E 011°29'1313.1
2014-Sep-21 17:33N 57°32' E 011°35'5 4.4
2014-Sep-21 16:32N 57°35' E 011°41'0 0.0
2014-Sep-21 15:32N 57°35' E 011°41'0 0.0
2014-Sep-21 14:32N 57°35' E 011°41'0 0.0
2014-Sep-21 13:32N 57°35' E 011°41'0 0.0
2014-Sep-21 12:32N 57°35' E 011°41'0 0.0
2014-Sep-21 11:32N 57°35' E 011°41'1 0.7
2014-Sep-21 10:33N 57°35' E 011°40'5 4.5
2014-Sep-21 09:33N 57°36' E 011°32'1010.1
2014-Sep-21 08:34N 57°43' E 011°19'1413.6
2014-Sep-21 07:33N 57°50' E 010°56'15912.1
2014-Sep-20 18:26N 58°00' E 005°58'67 9.6
2014-Sep-20 11:26N 58°58' E 004°51'1011.3
2014-Sep-20 10:33N 59°03' E 005°08'1010.1
2014-Sep-20 09:33N 59°08' E 005°24'1312.9
2014-Sep-20 08:33N 59°16' E 005°44'1312.5
2014-Sep-20 07:33N 59°23' E 006°04'7 7.0
2014-Sep-20 06:32N 59°29' E 006°14'  
2014-Sep-16 05:25N 59°30' E 006°15'8 8.4
2014-Sep-16 04:29N 59°24' E 006°05'9 9.1
2014-Sep-16 03:33N 59°19' E 005°51'1212.0
2014-Sep-16 02:33N 59°10' E 005°35'9 9.3
2014-Sep-16 01:33N 59°05' E 005°21'7 7.0
2014-Sep-16 00:33N 59°01' E 005°09'1212.1
2014-Sep-15 23:33N 58°53' E 004°52'1312.7
2014-Sep-15 22:33N 58°42' E 005°02'1412.5
2014-Sep-15 21:27N 58°29' E 005°12'1213.0
2014-Sep-15 20:32N 58°21' E 005°29'1313.0
2014-Sep-15 19:33N 58°15' E 005°50'1313.2
2014-Sep-15 18:33N 58°11' E 006°14'  

Dump ship's entire track history